sensor_id;sensor_type;location;lat;lon;timestamp;P1;durP1;ratioP1;P2;durP2;ratioP2
43154;SDS011;34212;51.018;13.586;2023-01-28T00:01:25;89.97;;;9.73;;
43154;SDS011;34212;51.018;13.586;2023-01-28T00:06:27;13.32;;;7.82;;
43154;SDS011;34212;51.018;13.586;2023-01-28T00:11:28;34.17;;;8.10;;
43154;SDS011;34212;51.018;13.586;2023-01-28T00:16:29;11.88;;;7.78;;
43154;SDS011;34212;51.018;13.586;2023-01-28T00:21:31;12.32;;;7.20;;
43154;SDS011;34212;51.018;13.586;2023-01-28T00:26:32;11.68;;;7.32;;
43154;SDS011;34212;51.018;13.586;2023-01-28T00:31:34;12.02;;;7.55;;
43154;SDS011;34212;51.018;13.586;2023-01-28T00:36:35;11.80;;;7.88;;
43154;SDS011;34212;51.018;13.586;2023-01-28T00:41:39;12.13;;;8.07;;
43154;SDS011;34212;51.018;13.586;2023-01-28T00:46:40;12.98;;;8.32;;
43154;SDS011;34212;51.018;13.586;2023-01-28T00:51:42;13.65;;;8.85;;
43154;SDS011;34212;51.018;13.586;2023-01-28T00:56:43;13.27;;;7.95;;
43154;SDS011;34212;51.018;13.586;2023-01-28T01:01:45;11.75;;;8.32;;
43154;SDS011;34212;51.018;13.586;2023-01-28T01:06:46;13.98;;;8.85;;
43154;SDS011;34212;51.018;13.586;2023-01-28T01:11:48;15.27;;;9.88;;
43154;SDS011;34212;51.018;13.586;2023-01-28T01:16:49;14.75;;;9.85;;
43154;SDS011;34212;51.018;13.586;2023-01-28T01:21:52;13.23;;;8.98;;
43154;SDS011;34212;51.018;13.586;2023-01-28T01:26:54;16.08;;;11.00;;
43154;SDS011;34212;51.018;13.586;2023-01-28T01:31:55;15.07;;;9.57;;
43154;SDS011;34212;51.018;13.586;2023-01-28T01:36:57;17.30;;;9.52;;
43154;SDS011;34212;51.018;13.586;2023-01-28T01:41:59;25.40;;;10.80;;
43154;SDS011;34212;51.018;13.586;2023-01-28T01:47:01;14.38;;;8.80;;
43154;SDS011;34212;51.018;13.586;2023-01-28T01:52:06;12.00;;;8.13;;
43154;SDS011;34212;51.018;13.586;2023-01-28T01:57:13;15.90;;;8.45;;
43154;SDS011;34212;51.018;13.586;2023-01-28T02:02:17;12.70;;;8.23;;
43154;SDS011;34212;51.018;13.586;2023-01-28T02:07:18;17.63;;;7.95;;
43154;SDS011;34212;51.018;13.586;2023-01-28T02:12:20;12.23;;;7.70;;
43154;SDS011;34212;51.018;13.586;2023-01-28T02:17:26;12.77;;;7.28;;
43154;SDS011;34212;51.018;13.586;2023-01-28T02:32:51;9.70;;;6.55;;
43154;SDS011;34212;51.018;13.586;2023-01-28T02:37:57;13.73;;;7.10;;
43154;SDS011;34212;51.018;13.586;2023-01-28T02:43:04;11.25;;;6.70;;
43154;SDS011;34212;51.018;13.586;2023-01-28T02:48:06;13.85;;;8.20;;
43154;SDS011;34212;51.018;13.586;2023-01-28T02:53:18;14.00;;;7.35;;
43154;SDS011;34212;51.018;13.586;2023-01-28T03:03:58;15.90;;;8.73;;
43154;SDS011;34212;51.018;13.586;2023-01-28T03:09:05;11.98;;;7.22;;
43154;SDS011;34212;51.018;13.586;2023-01-28T03:14:22;10.45;;;6.63;;
43154;SDS011;34212;51.018;13.586;2023-01-28T03:19:44;12.20;;;6.60;;
43154;SDS011;34212;51.018;13.586;2023-01-28T03:25:06;11.18;;;6.32;;
43154;SDS011;34212;51.018;13.586;2023-01-28T03:30:30;10.18;;;6.70;;
43154;SDS011;34212;51.018;13.586;2023-01-28T03:36:09;9.90;;;6.28;;
43154;SDS011;34212;51.018;13.586;2023-01-28T03:41:30;8.18;;;5.78;;
43154;SDS011;34212;51.018;13.586;2023-01-28T03:46:32;8.37;;;5.80;;
43154;SDS011;34212;51.018;13.586;2023-01-28T03:51:36;8.80;;;6.30;;
43154;SDS011;34212;51.018;13.586;2023-01-28T03:56:37;11.18;;;5.93;;
43154;SDS011;34212;51.018;13.586;2023-01-28T04:01:40;9.80;;;5.63;;
43154;SDS011;34212;51.018;13.586;2023-01-28T04:06:41;9.68;;;5.65;;
43154;SDS011;34212;51.018;13.586;2023-01-28T04:11:58;8.23;;;5.78;;
43154;SDS011;34212;51.018;13.586;2023-01-28T04:17:08;10.25;;;5.30;;
43154;SDS011;34212;51.018;13.586;2023-01-28T04:22:12;11.10;;;5.80;;
43154;SDS011;34212;51.018;13.586;2023-01-28T04:27:15;8.27;;;5.35;;
43154;SDS011;34212;51.018;13.586;2023-01-28T04:32:17;10.07;;;7.05;;
43154;SDS011;34212;51.018;13.586;2023-01-28T04:37:42;10.00;;;5.57;;
43154;SDS011;34212;51.018;13.586;2023-01-28T04:43:02;9.23;;;5.13;;
43154;SDS011;34212;51.018;13.586;2023-01-28T04:48:25;9.40;;;6.25;;
43154;SDS011;34212;51.018;13.586;2023-01-28T04:53:38;7.28;;;6.00;;
43154;SDS011;34212;51.018;13.586;2023-01-28T04:58:41;11.20;;;6.00;;
43154;SDS011;34212;51.018;13.586;2023-01-28T05:03:47;10.27;;;7.05;;
43154;SDS011;34212;51.018;13.586;2023-01-28T05:08:57;11.35;;;7.63;;
43154;SDS011;34212;51.018;13.586;2023-01-28T05:13:58;8.55;;;6.60;;
43154;SDS011;34212;51.018;13.586;2023-01-28T05:19:06;8.25;;;5.82;;
43154;SDS011;34212;51.018;13.586;2023-01-28T05:24:13;10.65;;;6.15;;
43154;SDS011;34212;51.018;13.586;2023-01-28T05:29:17;7.28;;;5.45;;
43154;SDS011;34212;51.018;13.586;2023-01-28T05:34:19;8.15;;;5.45;;
43154;SDS011;34212;51.018;13.586;2023-01-28T05:39:20;10.75;;;7.03;;
43154;SDS011;34212;51.018;13.586;2023-01-28T05:44:22;52.60;;;7.25;;
43154;SDS011;34212;51.018;13.586;2023-01-28T05:49:43;7.15;;;5.38;;
43154;SDS011;34212;51.018;13.586;2023-01-28T05:55:05;7.30;;;6.10;;
43154;SDS011;34212;51.018;13.586;2023-01-28T06:00:07;9.77;;;6.05;;
43154;SDS011;34212;51.018;13.586;2023-01-28T06:07:35;8.15;;;5.30;;
43154;SDS011;34212;51.018;13.586;2023-01-28T06:12:38;8.27;;;6.20;;
43154;SDS011;34212;51.018;13.586;2023-01-28T06:18:00;9.77;;;6.72;;
43154;SDS011;34212;51.018;13.586;2023-01-28T06:23:11;10.00;;;7.05;;
43154;SDS011;34212;51.018;13.586;2023-01-28T06:28:13;11.02;;;7.03;;
43154;SDS011;34212;51.018;13.586;2023-01-28T06:33:14;8.18;;;4.88;;
43154;SDS011;34212;51.018;13.586;2023-01-28T06:38:16;7.03;;;5.82;;
43154;SDS011;34212;51.018;13.586;2023-01-28T06:43:17;7.50;;;6.00;;
43154;SDS011;34212;51.018;13.586;2023-01-28T06:48:19;8.93;;;5.35;;
43154;SDS011;34212;51.018;13.586;2023-01-28T06:53:21;8.27;;;5.40;;
43154;SDS011;34212;51.018;13.586;2023-01-28T06:58:22;7.63;;;5.82;;
43154;SDS011;34212;51.018;13.586;2023-01-28T07:03:24;6.25;;;4.75;;
43154;SDS011;34212;51.018;13.586;2023-01-28T07:08:26;5.78;;;4.40;;
43154;SDS011;34212;51.018;13.586;2023-01-28T07:13:27;7.88;;;5.07;;
43154;SDS011;34212;51.018;13.586;2023-01-28T07:18:29;5.40;;;4.63;;
43154;SDS011;34212;51.018;13.586;2023-01-28T07:23:30;6.15;;;4.50;;
43154;SDS011;34212;51.018;13.586;2023-01-28T07:28:32;9.38;;;4.15;;
43154;SDS011;34212;51.018;13.586;2023-01-28T07:33:34;5.93;;;4.18;;
43154;SDS011;34212;51.018;13.586;2023-01-28T07:38:35;6.93;;;4.03;;
43154;SDS011;34212;51.018;13.586;2023-01-28T07:43:36;7.30;;;4.30;;
43154;SDS011;34212;51.018;13.586;2023-01-28T07:48:38;6.38;;;4.40;;
43154;SDS011;34212;51.018;13.586;2023-01-28T07:53:39;5.43;;;4.10;;
43154;SDS011;34212;51.018;13.586;2023-01-28T07:58:41;10.48;;;4.93;;
43154;SDS011;34212;51.018;13.586;2023-01-28T08:03:42;7.38;;;5.28;;
43154;SDS011;34212;51.018;13.586;2023-01-28T08:08:45;5.43;;;4.25;;
43154;SDS011;34212;51.018;13.586;2023-01-28T08:18:49;7.75;;;4.22;;
43154;SDS011;34212;51.018;13.586;2023-01-28T08:23:50;4.85;;;4.10;;
43154;SDS011;34212;51.018;13.586;2023-01-28T08:28:52;6.53;;;4.60;;
43154;SDS011;34212;51.018;13.586;2023-01-28T08:33:53;6.00;;;3.85;;
43154;SDS011;34212;51.018;13.586;2023-01-28T08:38:55;6.60;;;4.05;;
43154;SDS011;34212;51.018;13.586;2023-01-28T08:43:56;6.40;;;3.28;;
43154;SDS011;34212;51.018;13.586;2023-01-28T08:48:59;6.00;;;3.10;;
43154;SDS011;34212;51.018;13.586;2023-01-28T08:54:00;4.70;;;2.53;;
43154;SDS011;34212;51.018;13.586;2023-01-28T08:59:02;6.32;;;3.83;;
43154;SDS011;34212;51.018;13.586;2023-01-28T09:04:03;4.97;;;3.72;;
43154;SDS011;34212;51.018;13.586;2023-01-28T09:09:05;3.97;;;2.95;;
43154;SDS011;34212;51.018;13.586;2023-01-28T09:14:07;9.35;;;3.72;;
43154;SDS011;34212;51.018;13.586;2023-01-28T09:19:09;5.57;;;4.28;;
43154;SDS011;34212;51.018;13.586;2023-01-28T09:24:10;6.28;;;3.58;;
43154;SDS011;34212;51.018;13.586;2023-01-28T09:29:12;6.00;;;4.57;;
43154;SDS011;34212;51.018;13.586;2023-01-28T09:34:14;3.10;;;2.65;;
43154;SDS011;34212;51.018;13.586;2023-01-28T09:39:15;5.32;;;2.50;;
43154;SDS011;34212;51.018;13.586;2023-01-28T09:44:24;5.97;;;3.50;;
43154;SDS011;34212;51.018;13.586;2023-01-28T09:49:43;5.55;;;3.35;;
43154;SDS011;34212;51.018;13.586;2023-01-28T09:54:50;4.78;;;3.90;;
43154;SDS011;34212;51.018;13.586;2023-01-28T09:59:55;8.50;;;5.28;;
43154;SDS011;34212;51.018;13.586;2023-01-28T10:05:44;8.03;;;3.80;;
43154;SDS011;34212;51.018;13.586;2023-01-28T10:21:13;5.65;;;2.88;;
43154;SDS011;34212;51.018;13.586;2023-01-28T10:26:25;7.25;;;2.83;;
43154;SDS011;34212;51.018;13.586;2023-01-28T10:31:34;8.00;;;3.30;;
43154;SDS011;34212;51.018;13.586;2023-01-28T10:36:40;5.30;;;3.10;;
43154;SDS011;34212;51.018;13.586;2023-01-28T10:41:43;6.10;;;3.53;;
43154;SDS011;34212;51.018;13.586;2023-01-28T10:46:58;6.78;;;3.25;;
43154;SDS011;34212;51.018;13.586;2023-01-28T10:52:10;6.95;;;3.40;;
43154;SDS011;34212;51.018;13.586;2023-01-28T10:57:16;4.95;;;3.42;;
43154;SDS011;34212;51.018;13.586;2023-01-28T11:07:37;4.93;;;3.60;;
43154;SDS011;34212;51.018;13.586;2023-01-28T11:12:39;4.35;;;2.67;;
43154;SDS011;34212;51.018;13.586;2023-01-28T11:17:52;7.17;;;3.70;;
43154;SDS011;34212;51.018;13.586;2023-01-28T11:22:58;6.20;;;2.90;;
43154;SDS011;34212;51.018;13.586;2023-01-28T11:28:00;7.20;;;3.00;;
43154;SDS011;34212;51.018;13.586;2023-01-28T11:33:07;5.65;;;3.10;;
43154;SDS011;34212;51.018;13.586;2023-01-28T11:38:18;10.10;;;4.63;;
43154;SDS011;34212;51.018;13.586;2023-01-28T11:43:25;5.90;;;3.30;;
43154;SDS011;34212;51.018;13.586;2023-01-28T12:15:42;4.75;;;3.13;;
43154;SDS011;34212;51.018;13.586;2023-01-28T12:20:51;4.95;;;3.30;;
43154;SDS011;34212;51.018;13.586;2023-01-28T12:36:32;6.03;;;2.95;;
43154;SDS011;34212;51.018;13.586;2023-01-28T12:41:50;4.97;;;3.10;;
43154;SDS011;34212;51.018;13.586;2023-01-28T12:46:57;5.15;;;3.20;;
43154;SDS011;34212;51.018;13.586;2023-01-28T12:57:30;6.75;;;3.00;;
43154;SDS011;34212;51.018;13.586;2023-01-28T13:02:41;3.97;;;2.90;;
43154;SDS011;34212;51.018;13.586;2023-01-28T13:12:49;10.15;;;4.05;;
43154;SDS011;34212;51.018;13.586;2023-01-28T13:17:52;4.43;;;3.13;;
43154;SDS011;34212;51.018;13.586;2023-01-28T13:23:21;6.25;;;3.38;;
43154;SDS011;34212;51.018;13.586;2023-01-28T13:28:35;4.65;;;3.28;;
43154;SDS011;34212;51.018;13.586;2023-01-28T13:33:38;5.70;;;2.85;;
43154;SDS011;34212;51.018;13.586;2023-01-28T13:38:42;4.93;;;2.90;;
43154;SDS011;34212;51.018;13.586;2023-01-28T13:43:47;5.80;;;3.30;;
43154;SDS011;34212;51.018;13.586;2023-01-28T13:48:50;7.80;;;2.90;;
43154;SDS011;34212;51.018;13.586;2023-01-28T13:53:58;5.05;;;3.35;;
43154;SDS011;34212;51.018;13.586;2023-01-28T13:59:09;5.45;;;3.40;;
43154;SDS011;34212;51.018;13.586;2023-01-28T14:19:49;6.35;;;2.85;;
43154;SDS011;34212;51.018;13.586;2023-01-28T14:24:54;6.95;;;3.67;;
43154;SDS011;34212;51.018;13.586;2023-01-28T14:35:26;8.05;;;3.35;;
43154;SDS011;34212;51.018;13.586;2023-01-28T14:40:36;3.97;;;2.90;;
43154;SDS011;34212;51.018;13.586;2023-01-28T15:02:26;5.03;;;3.03;;
43154;SDS011;34212;51.018;13.586;2023-01-28T15:07:30;3.30;;;2.70;;
43154;SDS011;34212;51.018;13.586;2023-01-28T15:12:33;9.05;;;3.03;;
43154;SDS011;34212;51.018;13.586;2023-01-28T15:17:38;6.53;;;3.03;;
43154;SDS011;34212;51.018;13.586;2023-01-28T15:22:39;9.48;;;3.53;;
43154;SDS011;34212;51.018;13.586;2023-01-28T15:27:42;3.00;;;2.30;;
43154;SDS011;34212;51.018;13.586;2023-01-28T15:32:44;17.50;;;7.57;;
43154;SDS011;34212;51.018;13.586;2023-01-28T15:37:46;6.50;;;4.25;;
43154;SDS011;34212;51.018;13.586;2023-01-28T15:42:48;4.90;;;2.88;;
43154;SDS011;34212;51.018;13.586;2023-01-28T15:47:51;7.37;;;4.57;;
43154;SDS011;34212;51.018;13.586;2023-01-28T15:53:02;6.50;;;4.15;;
43154;SDS011;34212;51.018;13.586;2023-01-28T15:58:28;3.95;;;2.20;;
43154;SDS011;34212;51.018;13.586;2023-01-28T16:03:32;4.20;;;2.28;;
43154;SDS011;34212;51.018;13.586;2023-01-28T16:08:55;6.47;;;4.20;;
43154;SDS011;34212;51.018;13.586;2023-01-28T16:13:59;3.40;;;3.10;;
43154;SDS011;34212;51.018;13.586;2023-01-28T16:19:02;3.93;;;3.13;;
43154;SDS011;34212;51.018;13.586;2023-01-28T16:24:17;6.55;;;4.18;;
43154;SDS011;34212;51.018;13.586;2023-01-28T16:29:24;4.80;;;3.83;;
43154;SDS011;34212;51.018;13.586;2023-01-28T16:34:26;6.55;;;3.42;;
43154;SDS011;34212;51.018;13.586;2023-01-28T16:39:28;5.43;;;3.78;;
43154;SDS011;34212;51.018;13.586;2023-01-28T16:44:30;7.40;;;5.07;;
43154;SDS011;34212;51.018;13.586;2023-01-28T16:49:32;7.85;;;3.92;;
43154;SDS011;34212;51.018;13.586;2023-01-28T16:54:34;4.43;;;3.70;;
43154;SDS011;34212;51.018;13.586;2023-01-28T16:59:36;4.47;;;3.08;;
43154;SDS011;34212;51.018;13.586;2023-01-28T17:04:38;5.47;;;3.95;;
43154;SDS011;34212;51.018;13.586;2023-01-28T17:09:40;3.90;;;2.80;;
43154;SDS011;34212;51.018;13.586;2023-01-28T17:14:41;7.43;;;3.08;;
43154;SDS011;34212;51.018;13.586;2023-01-28T17:19:43;5.65;;;3.50;;
43154;SDS011;34212;51.018;13.586;2023-01-28T17:24:44;6.30;;;3.30;;
43154;SDS011;34212;51.018;13.586;2023-01-28T17:29:46;5.18;;;3.60;;
43154;SDS011;34212;51.018;13.586;2023-01-28T17:34:48;7.43;;;4.38;;
43154;SDS011;34212;51.018;13.586;2023-01-28T17:39:50;7.75;;;5.82;;
43154;SDS011;34212;51.018;13.586;2023-01-28T17:44:51;9.05;;;6.63;;
43154;SDS011;34212;51.018;13.586;2023-01-28T17:49:53;9.18;;;5.65;;
43154;SDS011;34212;51.018;13.586;2023-01-28T17:54:57;8.13;;;5.63;;
43154;SDS011;34212;51.018;13.586;2023-01-28T17:59:58;7.88;;;6.45;;
43154;SDS011;34212;51.018;13.586;2023-01-28T18:05:01;8.57;;;6.60;;
43154;SDS011;34212;51.018;13.586;2023-01-28T18:10:03;12.55;;;7.68;;
43154;SDS011;34212;51.018;13.586;2023-01-28T18:15:05;11.02;;;6.60;;
43154;SDS011;34212;51.018;13.586;2023-01-28T18:20:07;9.80;;;6.40;;
43154;SDS011;34212;51.018;13.586;2023-01-28T18:25:14;10.48;;;6.28;;
43154;SDS011;34212;51.018;13.586;2023-01-28T18:30:18;10.57;;;6.05;;
43154;SDS011;34212;51.018;13.586;2023-01-28T18:35:20;9.00;;;5.85;;
43154;SDS011;34212;51.018;13.586;2023-01-28T18:40:22;9.43;;;6.30;;
43154;SDS011;34212;51.018;13.586;2023-01-28T18:45:24;12.10;;;6.85;;
43154;SDS011;34212;51.018;13.586;2023-01-28T18:50:25;9.75;;;6.40;;
43154;SDS011;34212;51.018;13.586;2023-01-28T18:55:27;11.55;;;7.65;;
43154;SDS011;34212;51.018;13.586;2023-01-28T19:00:29;11.85;;;7.57;;
43154;SDS011;34212;51.018;13.586;2023-01-28T19:05:35;13.05;;;7.97;;
43154;SDS011;34212;51.018;13.586;2023-01-28T19:10:37;18.27;;;11.35;;
43154;SDS011;34212;51.018;13.586;2023-01-28T19:15:39;11.43;;;7.55;;
43154;SDS011;34212;51.018;13.586;2023-01-28T19:20:41;14.83;;;9.83;;
43154;SDS011;34212;51.018;13.586;2023-01-28T19:25:45;16.05;;;10.57;;
43154;SDS011;34212;51.018;13.586;2023-01-28T19:30:46;16.08;;;9.63;;
43154;SDS011;34212;51.018;13.586;2023-01-28T19:35:53;14.25;;;9.75;;
43154;SDS011;34212;51.018;13.586;2023-01-28T19:41:01;22.27;;;12.57;;
43154;SDS011;34212;51.018;13.586;2023-01-28T19:46:04;16.23;;;10.20;;
43154;SDS011;34212;51.018;13.586;2023-01-28T19:51:07;18.67;;;10.57;;
43154;SDS011;34212;51.018;13.586;2023-01-28T19:56:10;17.20;;;11.10;;
43154;SDS011;34212;51.018;13.586;2023-01-28T20:01:18;18.50;;;10.77;;
43154;SDS011;34212;51.018;13.586;2023-01-28T20:06:21;14.52;;;9.45;;
43154;SDS011;34212;51.018;13.586;2023-01-28T20:11:24;13.38;;;8.07;;
43154;SDS011;34212;51.018;13.586;2023-01-28T20:16:27;15.10;;;9.32;;
43154;SDS011;34212;51.018;13.586;2023-01-28T20:21:31;13.27;;;9.10;;
43154;SDS011;34212;51.018;13.586;2023-01-28T20:26:34;14.68;;;9.18;;
43154;SDS011;34212;51.018;13.586;2023-01-28T20:31:38;15.25;;;8.18;;
43154;SDS011;34212;51.018;13.586;2023-01-28T20:36:41;12.13;;;7.10;;
43154;SDS011;34212;51.018;13.586;2023-01-28T20:41:43;13.98;;;8.63;;
43154;SDS011;34212;51.018;13.586;2023-01-28T20:46:44;9.98;;;7.05;;
43154;SDS011;34212;51.018;13.586;2023-01-28T20:51:46;11.25;;;7.32;;
43154;SDS011;34212;51.018;13.586;2023-01-28T20:56:48;15.20;;;8.75;;
43154;SDS011;34212;51.018;13.586;2023-01-28T21:01:50;11.70;;;7.88;;
43154;SDS011;34212;51.018;13.586;2023-01-28T21:06:52;11.30;;;6.93;;
43154;SDS011;34212;51.018;13.586;2023-01-28T21:11:54;13.90;;;8.82;;
43154;SDS011;34212;51.018;13.586;2023-01-28T21:16:55;13.85;;;8.68;;
43154;SDS011;34212;51.018;13.586;2023-01-28T21:21:57;16.80;;;10.02;;
43154;SDS011;34212;51.018;13.586;2023-01-28T21:26:58;10.98;;;7.28;;
43154;SDS011;34212;51.018;13.586;2023-01-28T21:32:00;13.63;;;8.88;;
43154;SDS011;34212;51.018;13.586;2023-01-28T21:37:02;11.73;;;7.93;;
43154;SDS011;34212;51.018;13.586;2023-01-28T21:42:03;13.80;;;8.15;;
43154;SDS011;34212;51.018;13.586;2023-01-28T21:47:05;13.02;;;7.57;;
43154;SDS011;34212;51.018;13.586;2023-01-28T21:52:07;15.70;;;8.40;;
43154;SDS011;34212;51.018;13.586;2023-01-28T21:57:09;14.63;;;8.98;;
43154;SDS011;34212;51.018;13.586;2023-01-28T22:02:12;11.07;;;7.30;;
43154;SDS011;34212;51.018;13.586;2023-01-28T22:07:15;11.10;;;7.53;;
43154;SDS011;34212;51.018;13.586;2023-01-28T22:12:18;10.15;;;6.72;;
43154;SDS011;34212;51.018;13.586;2023-01-28T22:22:23;11.57;;;7.47;;
43154;SDS011;34212;51.018;13.586;2023-01-28T22:27:24;12.50;;;7.38;;
43154;SDS011;34212;51.018;13.586;2023-01-28T22:32:29;14.18;;;8.10;;
43154;SDS011;34212;51.018;13.586;2023-01-28T22:37:30;11.52;;;7.15;;
43154;SDS011;34212;51.018;13.586;2023-01-28T22:42:32;8.95;;;6.00;;
43154;SDS011;34212;51.018;13.586;2023-01-28T22:47:33;9.20;;;6.30;;
43154;SDS011;34212;51.018;13.586;2023-01-28T22:52:35;12.60;;;6.82;;
43154;SDS011;34212;51.018;13.586;2023-01-28T22:57:37;9.68;;;6.68;;
43154;SDS011;34212;51.018;13.586;2023-01-28T23:02:38;8.70;;;6.45;;
43154;SDS011;34212;51.018;13.586;2023-01-28T23:07:40;9.07;;;5.90;;
43154;SDS011;34212;51.018;13.586;2023-01-28T23:12:42;12.40;;;7.25;;
43154;SDS011;34212;51.018;13.586;2023-01-28T23:17:44;12.15;;;7.78;;
43154;SDS011;34212;51.018;13.586;2023-01-28T23:23:07;9.55;;;6.57;;
43154;SDS011;34212;51.018;13.586;2023-01-28T23:28:34;11.90;;;7.28;;
43154;SDS011;34212;51.018;13.586;2023-01-28T23:33:35;11.02;;;7.20;;
43154;SDS011;34212;51.018;13.586;2023-01-28T23:38:37;10.48;;;7.05;;
43154;SDS011;34212;51.018;13.586;2023-01-28T23:43:39;9.38;;;6.25;;
43154;SDS011;34212;51.018;13.586;2023-01-28T23:48:40;12.70;;;7.30;;
43154;SDS011;34212;51.018;13.586;2023-01-28T23:53:42;13.63;;;7.20;;
43154;SDS011;34212;51.018;13.586;2023-01-28T23:58:44;13.25;;;7.72;;
